createdAt,value
2023-09-08T00:00:29.850Z,99226.83
2023-09-08T00:03:16.901Z,99223.40
2023-09-08T00:05:43.895Z,99223.45
2023-09-08T00:08:11.153Z,99222.55
2023-09-08T00:10:38.162Z,99222.11
2023-09-08T00:13:05.539Z,99221.58
2023-09-08T00:15:34.086Z,99224.48
2023-09-08T00:18:01.289Z,99222.63
2023-09-08T00:20:28.855Z,99224.38
2023-09-08T00:23:04.779Z,99227.08
2023-09-08T00:25:35.304Z,99227.81
2023-09-08T00:28:02.432Z,99229.07
2023-09-08T00:30:29.622Z,99226.77
2023-09-08T00:32:59.466Z,99224.38
2023-09-08T00:35:29.300Z,99232.49
2023-09-08T00:37:56.314Z,99231.71
2023-09-08T00:40:23.421Z,99232.84
2023-09-08T00:42:51.132Z,99233.76
2023-09-08T00:45:18.666Z,99234.59
2023-09-08T00:47:46.176Z,99236.97
2023-09-08T00:50:13.424Z,99236.44
2023-09-08T00:52:40.795Z,99234.28
2023-09-08T00:55:08.060Z,99233.03
2023-09-08T00:57:35.177Z,99229.64
2023-09-08T01:00:04.975Z,99229.62
2023-09-08T01:02:32.695Z,99229.80
2023-09-08T01:05:03.163Z,99233.26
2023-09-08T01:07:31.366Z,99229.06
2023-09-08T01:10:02.862Z,99232.02
2023-09-08T01:12:50.066Z,99232.73
2023-09-08T01:15:27.854Z,99231.38
2023-09-08T01:17:57.604Z,99230.02
2023-09-08T01:20:56.463Z,99223.42
2023-09-08T01:23:39.925Z,99227.19
2023-09-08T01:26:11.071Z,99231.35
2023-09-08T01:28:40.260Z,99222.67
2023-09-08T01:31:07.881Z,99226.84
2023-09-08T01:33:35.254Z,99229.26
2023-09-08T01:36:02.176Z,99227.31
2023-09-08T01:38:29.302Z,99225.54
2023-09-08T01:40:56.358Z,99223.80
2023-09-08T01:43:36.622Z,99221.81
2023-09-08T01:46:07.568Z,99224.83
2023-09-08T01:48:47.679Z,99227.61
2023-09-08T01:51:23.402Z,99225.36
2023-09-08T01:53:53.432Z,99227.70
2023-09-08T01:56:29.214Z,99227.02
2023-09-08T01:59:44.387Z,99230.41
2023-09-08T02:02:16.824Z,99229.92
2023-09-08T02:04:44.143Z,99226.39
2023-09-08T02:07:51.810Z,99224.67
2023-09-08T02:10:30.191Z,99224.27
2023-09-08T02:13:17.817Z,99229.52
2023-09-08T02:15:48.065Z,99224.40
2023-09-08T02:18:29.459Z,99225.70
2023-09-08T02:21:22.280Z,99224.64
2023-09-08T02:24:09.616Z,99223.86
2023-09-08T02:27:02.643Z,99224.67
2023-09-08T02:29:53.264Z,99223.05
2023-09-08T02:32:30.875Z,99220.45
2023-09-08T02:35:08.069Z,99220.67
2023-09-08T02:37:56.434Z,99220.39
2023-09-08T02:40:26.485Z,99219.50
2023-09-08T02:42:59.505Z,99215.90
2023-09-08T02:45:30.188Z,99213.93
2023-09-08T02:48:03.390Z,99198.20
2023-09-08T02:51:07.281Z,99209.98
2023-09-08T02:54:17.493Z,99203.04
2023-09-08T02:56:54.779Z,99206.00
2023-09-08T02:59:21.952Z,99204.46
2023-09-08T03:01:49.081Z,99202.20
2023-09-08T03:04:16.345Z,99200.95
2023-09-08T03:06:43.390Z,99197.05
2023-09-08T03:09:10.510Z,99196.19
2023-09-08T03:11:37.959Z,99198.70
2023-09-08T03:14:05.364Z,99201.04
2023-09-08T03:16:32.497Z,99198.60
2023-09-08T03:19:22.906Z,99198.38
2023-09-08T03:22:10.131Z,99198.84
2023-09-08T03:24:37.245Z,99200.91
2023-09-08T03:27:04.514Z,99200.51
2023-09-08T03:29:31.634Z,99203.09
2023-09-08T03:32:09.829Z,99203.94
2023-09-08T03:34:41.389Z,99205.35
2023-09-08T03:37:48.048Z,99201.25
2023-09-08T03:40:15.699Z,99197.18
2023-09-08T03:42:46.125Z,99198.95
2023-09-08T03:45:45.650Z,99201.33
2023-09-08T03:48:33.148Z,99198.26
2023-09-08T03:51:01.189Z,99196.67
2023-09-08T03:53:57.006Z,99197.77
2023-09-08T03:56:50.464Z,99202.16
2023-09-08T03:59:22.687Z,99198.87
2023-09-08T04:01:49.903Z,99204.25
2023-09-08T04:04:17.144Z,99205.14
2023-09-08T04:06:57.701Z,99206.33
2023-09-08T04:09:44.716Z,99210.17
2023-09-08T04:12:17.710Z,99213.64
2023-09-08T04:14:49.724Z,99212.40
2023-09-08T04:17:34.001Z,99215.11
2023-09-08T04:20:08.127Z,99217.91
2023-09-08T04:22:35.721Z,99220.45
2023-09-08T04:25:06.327Z,99227.16
2023-09-08T04:27:45.144Z,99223.64
2023-09-08T04:30:21.965Z,99226.02
2023-09-08T04:32:58.951Z,99229.41
2023-09-08T04:35:26.149Z,99229.58
2023-09-08T04:38:16.398Z,99228.17
2023-09-08T04:40:46.067Z,99223.45
2023-09-08T04:43:14.323Z,99225.08
2023-09-08T04:45:41.711Z,99222.31
2023-09-08T04:48:10.288Z,99221.40
2023-09-08T04:50:37.650Z,99221.92
2023-09-08T04:53:04.860Z,99224.05
2023-09-08T04:55:34.718Z,99225.36
2023-09-08T04:58:01.887Z,99226.73
2023-09-08T05:00:29.169Z,99229.17
2023-09-08T05:02:56.964Z,99228.73
2023-09-08T05:05:24.057Z,99227.64
2023-09-08T05:07:53.857Z,99225.83
2023-09-08T05:10:20.881Z,99227.61
2023-09-08T05:12:48.321Z,99226.71
2023-09-08T05:15:16.350Z,99224.39
2023-09-08T05:17:47.023Z,99224.96
2023-09-08T05:20:14.015Z,99227.08
2023-09-08T05:22:45.408Z,99227.58
2023-09-08T05:25:12.974Z,99228.70
2023-09-08T05:27:39.865Z,99229.65
2023-09-08T05:30:07.345Z,99229.10
2023-09-08T05:32:35.500Z,99233.61
2023-09-08T05:35:03.218Z,99234.98
2023-09-08T05:37:32.078Z,99232.27
2023-09-08T05:40:19.587Z,99226.52
2023-09-08T05:42:54.340Z,99233.16
2023-09-08T05:45:26.379Z,99233.70
2023-09-08T05:48:02.815Z,99235.73
2023-09-08T05:51:19.495Z,99238.40
2023-09-08T05:53:56.615Z,99238.27
2023-09-08T05:56:34.317Z,99240.57
2023-09-08T05:59:10.430Z,99238.52
2023-09-08T06:01:52.059Z,99242.20
2023-09-08T06:04:52.605Z,99242.25
2023-09-08T06:07:20.163Z,99244.67
2023-09-08T06:09:47.742Z,99238.67
2023-09-08T06:12:22.864Z,99242.30
2023-09-08T06:14:50.406Z,99238.92
2023-09-08T06:17:17.781Z,99236.52
2023-09-08T06:19:52.860Z,99240.67
2023-09-08T06:22:20.530Z,99239.02
2023-09-08T06:25:08.028Z,99241.38
2023-09-08T06:27:39.511Z,99236.86
2023-09-08T06:30:11.091Z,99230.69
2023-09-08T06:32:49.909Z,99233.77
2023-09-08T06:35:23.441Z,99228.05
2023-09-08T06:37:51.154Z,99233.09
2023-09-08T06:40:53.694Z,99225.24
2023-09-08T06:43:31.831Z,99227.61
2023-09-08T06:46:06.609Z,99227.08
2023-09-08T06:48:39.254Z,99223.89
2023-09-08T06:51:49.777Z,99221.94
2023-09-08T06:54:17.441Z,99219.20
2023-09-08T06:56:47.679Z,99218.88
2023-09-08T06:59:17.489Z,99217.34
2023-09-08T07:01:45.371Z,99220.25
2023-09-08T07:04:35.951Z,99218.80
2023-09-08T07:07:07.710Z,99221.45
2023-09-08T07:09:39.278Z,99219.48
2023-09-08T07:12:09.619Z,99218.95
2023-09-08T07:14:43.429Z,99219.64
2023-09-08T07:17:13.580Z,99222.63
2023-09-08T07:19:47.024Z,99225.18
2023-09-08T07:22:14.740Z,99226.60
2023-09-08T07:24:45.126Z,99221.34
2023-09-08T07:27:15.024Z,99223.66
2023-09-08T07:29:50.186Z,99211.89
2023-09-08T07:32:18.048Z,99218.59
2023-09-08T07:34:45.343Z,99216.17
2023-09-08T07:37:13.282Z,99213.20
2023-09-08T07:39:40.958Z,99213.50
2023-09-08T07:42:09.336Z,99216.28
2023-09-08T07:44:36.804Z,99216.39
2023-09-08T07:47:05.493Z,99214.31
2023-09-08T07:49:34.478Z,99217.64
2023-09-08T07:52:13.616Z,99214.15
2023-09-08T07:55:05.946Z,99214.42
2023-09-08T07:57:35.918Z,99207.48
2023-09-08T08:00:03.639Z,99206.43
2023-09-08T08:02:57.943Z,99205.01
2023-09-08T08:05:26.772Z,99203.77
2023-09-08T08:07:54.083Z,99201.00
2023-09-08T08:10:21.441Z,99202.05
2023-09-08T08:12:49.095Z,99198.39
2023-09-08T08:15:16.305Z,99202.66
2023-09-08T08:17:43.610Z,99200.11
2023-09-08T08:20:17.968Z,99199.83
2023-09-08T08:22:48.004Z,99199.77
2023-09-08T08:25:16.230Z,99200.38
2023-09-08T08:27:43.511Z,99202.14
2023-09-08T08:30:11.998Z,99203.17
2023-09-08T08:32:39.379Z,99199.42
2023-09-08T08:35:06.723Z,99200.33
2023-09-08T08:37:33.848Z,99199.32
2023-09-08T08:40:01.321Z,99195.14
2023-09-08T08:42:34.602Z,99196.48
2023-09-08T08:45:02.582Z,99198.92
2023-09-08T08:47:29.943Z,99198.71
2023-09-08T08:50:00.998Z,99194.36
2023-09-08T08:52:28.765Z,99190.14
2023-09-08T08:54:56.498Z,99190.45
2023-09-08T08:57:24.175Z,99192.23
2023-09-08T08:59:54.368Z,99187.95
2023-09-08T09:02:22.190Z,99188.67
2023-09-08T09:04:49.748Z,99190.21
2023-09-08T09:07:19.070Z,99186.63
2023-09-08T09:09:46.371Z,99185.20
2023-09-08T09:12:15.419Z,99181.20
2023-09-08T09:14:47.899Z,99179.90
2023-09-08T09:17:15.756Z,99178.58
2023-09-08T09:19:45.427Z,99169.70
2023-09-08T09:22:15.093Z,99165.64
2023-09-08T09:24:44.275Z,99166.02
2023-09-08T09:27:11.755Z,99163.46
2023-09-08T09:29:48.943Z,99163.02
2023-09-08T09:32:17.274Z,99161.21
2023-09-08T09:34:54.285Z,99157.87
2023-09-08T09:37:21.877Z,99160.41
2023-09-08T09:39:55.579Z,99163.06
2023-09-08T09:42:23.652Z,99163.84
2023-09-08T09:44:52.575Z,99166.87
2023-09-08T09:47:25.239Z,99162.48
2023-09-08T09:49:52.698Z,99161.25
2023-09-08T09:52:32.021Z,99160.19
2023-09-08T09:55:00.085Z,99158.14
2023-09-08T09:57:27.865Z,99160.04
2023-09-08T09:59:55.648Z,99154.86
2023-09-08T10:02:23.592Z,99156.39
2023-09-08T10:04:51.237Z,99154.35
2023-09-08T10:07:18.745Z,99149.83
2023-09-08T10:09:46.108Z,99152.85
2023-09-08T10:12:16.306Z,99154.33
2023-09-08T10:14:43.999Z,99149.34
2023-09-08T10:17:17.930Z,99149.20
2023-09-08T10:19:52.242Z,99139.58
2023-09-08T10:22:26.694Z,99139.77
2023-09-08T10:24:55.036Z,99136.73
2023-09-08T10:27:24.383Z,99136.84
2023-09-08T10:29:52.732Z,99132.23
2023-09-08T10:32:21.157Z,99132.90
2023-09-08T10:34:49.490Z,99130.50
2023-09-08T10:37:25.449Z,99129.86
2023-09-08T10:39:56.671Z,99129.77
2023-09-08T10:42:26.584Z,99129.69
2023-09-08T10:44:58.396Z,99130.73
2023-09-08T10:47:26.304Z,99127.38
2023-09-08T10:50:00.023Z,99122.34
2023-09-08T10:52:28.333Z,99121.50
2023-09-08T10:54:56.381Z,99119.59
2023-09-08T10:57:27.726Z,99116.39
2023-09-08T10:59:57.289Z,99116.30
2023-09-08T11:02:39.166Z,99117.71
2023-09-08T11:05:08.271Z,99112.84
2023-09-08T11:07:39.222Z,99110.79
2023-09-08T11:10:07.317Z,99104.93
2023-09-08T11:12:43.554Z,99108.73
2023-09-08T11:15:11.214Z,99105.76
2023-09-08T11:17:42.695Z,99106.64
2023-09-08T11:20:11.141Z,99100.96
2023-09-08T11:22:39.852Z,99094.97
2023-09-08T11:25:07.417Z,99090.09
2023-09-08T11:27:34.984Z,99088.43
2023-09-08T11:30:05.504Z,99088.29
2023-09-08T11:32:33.405Z,99087.93
2023-09-08T11:35:10.402Z,99086.69
2023-09-08T11:37:39.152Z,99083.34
2023-09-08T11:40:10.694Z,99081.64
2023-09-08T11:42:38.384Z,99078.04
2023-09-08T11:45:06.145Z,99081.26
2023-09-08T11:47:33.500Z,99076.92
2023-09-08T11:50:00.511Z,99075.30
2023-09-08T11:52:28.642Z,99074.55
2023-09-08T11:55:06.517Z,99072.70
2023-09-08T11:57:35.130Z,99068.98
2023-09-08T12:00:05.993Z,99063.01
2023-09-08T12:02:37.178Z,99064.82
2023-09-08T12:05:04.784Z,99062.17
2023-09-08T12:07:31.838Z,99061.52
2023-09-08T12:09:59.743Z,99057.57
2023-09-08T12:12:27.419Z,99050.48
2023-09-08T12:14:58.117Z,99042.20
2023-09-08T12:17:26.902Z,99042.45
2023-09-08T12:20:15.434Z,99041.03
2023-09-08T12:23:02.561Z,99040.30
2023-09-08T12:25:38.575Z,99043.14
2023-09-08T12:28:06.308Z,99038.56
2023-09-08T12:30:33.803Z,99036.39
2023-09-08T12:33:02.270Z,99037.04
2023-09-08T12:35:32.422Z,99036.40
2023-09-08T12:38:01.255Z,99036.27
2023-09-08T12:40:29.228Z,99027.17
2023-09-08T12:43:01.637Z,99024.80
2023-09-08T12:45:37.169Z,99019.46
2023-09-08T12:48:08.380Z,99019.91
2023-09-08T12:50:39.151Z,99011.66
2023-09-08T12:53:06.311Z,99004.64
2023-09-08T12:55:33.408Z,99005.23
2023-09-08T12:58:00.468Z,99000.75
2023-09-08T13:00:28.674Z,99002.66
2023-09-08T13:02:55.806Z,98997.02
2023-09-08T13:05:23.041Z,98991.21
2023-09-08T13:07:50.060Z,98991.56
2023-09-08T13:10:17.069Z,98992.44
2023-09-08T13:12:44.508Z,98990.20
2023-09-08T13:15:12.334Z,98989.89
2023-09-08T13:17:39.520Z,98989.86
2023-09-08T13:20:07.727Z,98983.64
2023-09-08T13:22:35.115Z,98982.57
2023-09-08T13:25:02.367Z,98981.26
2023-09-08T13:27:29.649Z,98981.95
2023-09-08T13:30:13.322Z,98977.66
2023-09-08T13:32:40.772Z,98975.24
2023-09-08T13:35:08.306Z,98973.28
2023-09-08T13:37:35.428Z,98969.35
2023-09-08T13:40:04.561Z,98961.91
2023-09-08T13:42:31.752Z,98957.72
2023-09-08T13:44:59.205Z,98959.92
2023-09-08T13:47:26.867Z,98959.41
2023-09-08T13:49:55.807Z,98956.27
2023-09-08T13:52:28.677Z,98953.89
2023-09-08T13:57:29.844Z,98946.65
2023-09-08T13:59:58.352Z,98942.39
2023-09-08T14:05:00.571Z,98933.42
2023-09-08T14:07:36.690Z,98931.04
2023-09-08T14:12:38.231Z,98928.19
2023-09-08T14:15:05.789Z,98925.61
2023-09-08T14:17:32.999Z,98926.12
2023-09-08T14:20:00.193Z,98922.59
2023-09-08T14:22:27.453Z,98930.52
2023-09-08T14:24:54.571Z,98924.06
2023-09-08T14:27:22.076Z,98926.87
2023-09-08T14:29:48.917Z,98926.63
2023-09-08T14:32:16.077Z,98926.50
2023-09-08T14:34:43.449Z,98928.44
2023-09-08T14:37:11.623Z,98924.55
2023-09-08T14:39:39.138Z,98921.19
2023-09-08T14:42:06.242Z,98917.71
2023-09-08T14:44:33.339Z,98918.61
2023-09-08T14:47:00.341Z,98916.46
2023-09-08T14:49:27.347Z,98913.89
2023-09-08T14:51:54.447Z,98912.20
2023-09-08T14:54:22.221Z,98910.68
2023-09-08T14:56:49.310Z,98909.54
2023-09-08T14:59:16.431Z,98905.09
2023-09-08T15:01:45.346Z,98899.46
2023-09-08T15:04:12.636Z,98897.55
2023-09-08T15:06:39.841Z,98897.69
2023-09-08T15:09:06.798Z,98894.54
2023-09-08T15:11:33.949Z,98898.37
2023-09-08T15:14:01.159Z,98896.65
2023-09-08T15:16:28.469Z,98897.64
2023-09-08T15:18:58.002Z,98900.61
2023-09-08T15:21:28.207Z,98900.64
2023-09-08T15:23:55.151Z,98897.08
2023-09-08T15:26:22.579Z,98894.63
2023-09-08T15:28:49.653Z,98891.58
2023-09-08T15:31:17.835Z,98890.50
2023-09-08T15:33:45.353Z,98889.79
2023-09-08T15:36:12.549Z,98888.70
2023-09-08T15:38:39.531Z,98889.48
2023-09-08T15:41:06.502Z,98889.17
2023-09-08T15:43:34.070Z,98886.12
2023-09-08T15:46:01.304Z,98884.35
2023-09-08T15:48:28.471Z,98886.91
2023-09-08T15:50:55.510Z,98890.06
2023-09-08T15:53:22.601Z,98887.50
2023-09-08T15:55:49.566Z,98884.88
2023-09-08T15:58:16.729Z,98885.10
2023-09-08T16:00:43.995Z,98884.88
2023-09-08T16:03:11.452Z,98878.79
2023-09-08T16:05:39.410Z,98877.16
2023-09-08T16:08:06.739Z,98879.47
2023-09-08T16:10:34.950Z,98880.96
2023-09-08T16:13:01.862Z,98884.29
2023-09-08T16:15:29.113Z,98885.84
2023-09-08T16:17:57.421Z,98886.42
2023-09-08T16:20:24.574Z,98885.67
2023-09-08T16:22:51.376Z,98881.21
2023-09-08T16:25:18.367Z,98883.61
2023-09-08T16:27:45.952Z,98882.16
2023-09-08T16:30:13.112Z,98878.84
2023-09-08T16:32:40.626Z,98883.15
2023-09-08T16:35:08.312Z,98885.46
2023-09-08T16:37:35.328Z,98890.58
2023-09-08T16:40:03.231Z,98886.39
2023-09-08T16:42:30.186Z,98893.00
2023-09-08T16:44:57.169Z,98890.20
2023-09-08T16:47:25.894Z,98894.20
2023-09-08T16:49:53.487Z,98894.95
2023-09-08T16:52:22.129Z,98897.92
2023-09-08T16:54:49.285Z,98904.55
2023-09-08T16:57:16.740Z,98909.91
2023-09-08T16:59:43.724Z,98905.54
2023-09-08T17:02:10.928Z,98910.65
2023-09-08T17:04:38.368Z,98911.30
2023-09-08T17:07:05.770Z,98907.96
2023-09-08T17:09:32.739Z,98911.28
2023-09-08T17:11:59.947Z,98917.70
2023-09-08T17:14:27.002Z,98915.78
2023-09-08T17:16:54.209Z,98920.04
2023-09-08T17:19:21.354Z,98920.20
2023-09-08T17:21:48.571Z,98925.30
2023-09-08T17:24:15.502Z,98926.73
2023-09-08T17:26:42.566Z,98921.60
2023-09-08T17:29:09.678Z,98923.55
2023-09-08T17:31:36.771Z,98928.09
2023-09-08T17:34:06.857Z,98929.27
2023-09-08T17:36:33.779Z,98931.88
2023-09-08T17:39:00.815Z,98934.91
2023-09-08T17:41:27.952Z,98936.76
2023-09-08T17:43:55.209Z,98933.98
2023-09-08T17:46:22.454Z,98936.69
2023-09-08T17:48:49.760Z,98937.77
2023-09-08T17:51:16.997Z,98937.80
2023-09-08T17:53:44.044Z,98942.83
2023-09-08T17:56:11.399Z,98940.69
2023-09-08T17:58:38.679Z,98941.14
2023-09-08T18:01:05.896Z,98944.91
2023-09-08T18:03:33.314Z,98944.02
2023-09-08T18:06:00.644Z,98943.46
2023-09-08T18:08:27.769Z,98942.58
2023-09-08T18:11:02.469Z,98943.41
2023-09-08T18:13:29.954Z,98946.56
2023-09-08T18:16:01.129Z,98942.95
2023-09-08T18:18:28.449Z,98945.09
2023-09-08T18:20:55.752Z,98949.27
2023-09-08T18:23:22.804Z,98947.48
2023-09-08T18:25:50.292Z,98944.90
2023-09-08T18:28:17.533Z,98940.08
2023-09-08T18:30:45.014Z,98938.15
2023-09-08T18:33:12.181Z,98937.45
2023-09-08T18:35:40.693Z,98933.68
2023-09-08T18:38:09.373Z,98935.50
2023-09-08T18:40:36.275Z,98938.63
2023-09-08T18:43:03.847Z,98939.29
2023-09-08T18:45:30.870Z,98938.70
2023-09-08T18:47:58.208Z,98937.09
2023-09-08T18:50:25.616Z,98933.61
2023-09-08T18:52:55.414Z,98931.25
2023-09-08T18:55:22.522Z,98929.35
2023-09-08T18:57:49.543Z,98933.52
2023-09-08T19:00:17.003Z,98935.73
2023-09-08T19:02:44.461Z,98936.14
2023-09-08T19:05:12.806Z,98938.55
2023-09-08T19:07:40.180Z,98936.77
2023-09-08T19:10:09.000Z,98936.02
2023-09-08T19:12:36.287Z,98935.55
2023-09-08T19:15:03.828Z,98936.15
2023-09-08T19:17:51.223Z,98935.64
2023-09-08T19:20:19.011Z,98936.74
2023-09-08T19:23:06.740Z,98936.92
2023-09-08T19:25:36.438Z,98935.33
2023-09-08T19:28:03.943Z,98924.12
2023-09-08T19:30:37.696Z,98935.92
2023-09-08T19:33:15.273Z,98935.52
2023-09-08T19:35:42.355Z,98932.54
2023-09-08T19:38:09.353Z,98935.89
2023-09-08T19:40:36.810Z,98932.36
2023-09-08T19:43:09.869Z,98926.91
2023-09-08T19:45:42.812Z,98933.34
2023-09-08T19:48:41.442Z,98935.16
2023-09-08T19:51:22.957Z,98936.92
2023-09-08T19:54:14.312Z,98937.99
2023-09-08T19:56:49.981Z,98940.77
2023-09-08T19:59:18.851Z,98940.58
2023-09-08T20:01:49.616Z,98942.67
2023-09-08T20:04:22.388Z,98939.02
2023-09-08T20:07:09.818Z,98940.69
2023-09-08T20:09:36.946Z,98936.61
2023-09-08T20:12:03.950Z,98936.14
2023-09-08T20:14:31.287Z,98933.56
2023-09-08T20:17:50.305Z,98936.98
2023-09-08T20:20:41.082Z,98938.62
2023-09-08T20:23:31.978Z,98941.14
2023-09-08T20:26:42.816Z,98941.13
2023-09-08T20:29:21.001Z,98941.62
2023-09-08T20:32:15.044Z,98943.73
2023-09-08T20:34:42.165Z,98941.67
2023-09-08T20:37:12.732Z,98941.85
2023-09-08T20:39:39.715Z,98940.13
2023-09-08T20:42:07.144Z,98939.67
2023-09-08T20:44:34.419Z,98940.14
2023-09-08T20:47:02.083Z,98941.89
2023-09-08T20:49:32.499Z,98945.58
2023-09-08T20:52:20.125Z,98941.11
2023-09-08T20:54:47.486Z,98941.98
2023-09-08T20:57:19.449Z,98942.67
2023-09-08T20:59:46.703Z,98941.65
2023-09-08T21:02:18.775Z,98939.89
2023-09-08T21:04:46.137Z,98938.38
2023-09-08T21:07:13.599Z,98940.66
2023-09-08T21:09:40.910Z,98942.60
2023-09-08T21:12:12.932Z,98939.57
2023-09-08T21:15:03.621Z,98940.77
2023-09-08T21:17:51.384Z,98941.58
2023-09-08T21:20:18.906Z,98943.66
2023-09-08T21:22:49.746Z,98946.11
2023-09-08T21:25:23.449Z,98940.77
2023-09-08T21:28:08.277Z,98942.64
2023-09-08T21:30:35.473Z,98943.09
2023-09-08T21:33:06.177Z,98942.48
2023-09-08T21:35:39.708Z,98942.31
2023-09-08T21:38:17.191Z,98948.22
2023-09-08T21:41:00.412Z,98943.16
2023-09-08T21:43:53.104Z,98946.48
2023-09-08T21:46:26.351Z,98946.21
2023-09-08T21:48:54.042Z,98944.93
2023-09-08T21:51:23.639Z,98944.60
2023-09-08T21:54:02.615Z,98944.95
2023-09-08T21:56:39.943Z,98944.83
2023-09-08T21:59:07.566Z,98938.21
2023-09-08T22:01:38.329Z,98934.00
2023-09-08T22:04:12.130Z,98934.23
2023-09-08T22:06:42.481Z,98938.73
2023-09-08T22:09:09.850Z,98939.11
2023-09-08T22:11:57.362Z,98934.81
2023-09-08T22:14:24.974Z,98935.40
2023-09-08T22:16:55.568Z,98932.61
2023-09-08T22:19:23.163Z,98926.77
2023-09-08T22:21:50.717Z,98930.42
2023-09-08T22:24:18.179Z,98928.52
2023-09-08T22:26:45.354Z,98924.10
2023-09-08T22:29:12.808Z,98923.66
2023-09-08T22:31:40.240Z,98923.66
2023-09-08T22:34:07.775Z,98926.13
2023-09-08T22:36:35.374Z,98928.68
2023-09-08T22:39:05.237Z,98928.65
2023-09-08T22:41:32.599Z,98927.99
2023-09-08T22:43:59.748Z,98930.75
2023-09-08T22:46:26.990Z,98927.61
2023-09-08T22:48:57.193Z,98926.23
2023-09-08T22:51:27.003Z,98926.81
2023-09-08T22:53:54.368Z,98929.02
2023-09-08T22:56:21.731Z,98925.71
2023-09-08T22:58:49.093Z,98922.86
2023-09-08T23:01:16.775Z,98920.73
2023-09-08T23:03:44.343Z,98917.83
2023-09-08T23:06:13.183Z,98918.42
2023-09-08T23:08:40.307Z,98917.63
2023-09-08T23:11:07.743Z,98912.81
2023-09-08T23:13:35.701Z,98916.05
2023-09-08T23:16:03.973Z,98912.23
2023-09-08T23:18:34.010Z,98917.80
2023-09-08T23:21:04.870Z,98912.44
2023-09-08T23:23:42.440Z,98913.38
2023-09-08T23:26:09.635Z,98911.70
2023-09-08T23:28:36.962Z,98909.91
2023-09-08T23:31:04.366Z,98915.08
2023-09-08T23:33:32.463Z,98913.05
2023-09-08T23:35:59.956Z,98912.28
2023-09-08T23:38:29.836Z,98915.16
2023-09-08T23:40:57.347Z,98910.40
2023-09-08T23:43:33.603Z,98911.85
2023-09-08T23:46:01.097Z,98908.40
2023-09-08T23:48:37.445Z,98904.96
2023-09-08T23:51:04.610Z,98903.64
2023-09-08T23:53:31.735Z,98900.46
2023-09-08T23:56:01.050Z,98899.08
2023-09-08T23:58:28.455Z,98898.10
